createdAt,value
2022-11-16T00:00:34.332Z,16.60
2022-11-16T00:03:00.797Z,16.60
2022-11-16T00:05:28.599Z,16.60
2022-11-16T00:07:55.166Z,16.60
2022-11-16T00:10:21.617Z,16.60
2022-11-16T00:12:48.104Z,16.60
2022-11-16T00:15:14.624Z,16.60
2022-11-16T00:17:41.091Z,16.60
2022-11-16T00:20:07.964Z,16.60
2022-11-16T00:22:34.431Z,16.60
2022-11-16T00:25:00.903Z,16.60
2022-11-16T00:27:27.363Z,16.60
2022-11-16T00:29:53.843Z,16.70
2022-11-16T00:32:20.298Z,16.60
2022-11-16T00:34:46.776Z,16.70
2022-11-16T00:37:13.251Z,16.70
2022-11-16T00:39:39.724Z,16.30
2022-11-16T00:42:06.215Z,16.70
2022-11-16T00:44:32.698Z,16.60
2022-11-16T00:46:59.145Z,16.60
2022-11-16T00:49:25.603Z,16.60
2022-11-16T00:51:52.086Z,16.60
2022-11-16T00:54:18.610Z,16.70
2022-11-16T00:56:45.126Z,16.60
2022-11-16T00:59:11.594Z,16.60
2022-11-16T01:01:38.202Z,16.60
2022-11-16T01:04:04.712Z,16.60
2022-11-16T01:06:31.185Z,16.60
2022-11-16T01:08:57.645Z,16.60
2022-11-16T01:11:24.098Z,16.40
2022-11-16T01:13:50.546Z,16.60
2022-11-16T01:16:17.026Z,16.60
2022-11-16T01:18:43.495Z,16.60
2022-11-16T01:21:09.965Z,16.60
2022-11-16T01:23:36.446Z,16.60
2022-11-16T01:26:02.924Z,16.60
2022-11-16T01:28:29.389Z,16.60
2022-11-16T01:30:55.884Z,16.60
2022-11-16T01:33:22.360Z,16.60
2022-11-16T01:35:48.830Z,16.60
2022-11-16T01:38:15.280Z,16.60
2022-11-16T01:40:41.759Z,16.60
2022-11-16T01:43:08.221Z,16.60
2022-11-16T01:45:34.697Z,16.60
2022-11-16T01:48:01.213Z,16.60
2022-11-16T01:50:27.704Z,16.60
2022-11-16T01:52:54.178Z,16.60
2022-11-16T01:55:20.650Z,16.60
2022-11-16T01:57:47.129Z,16.60
2022-11-16T02:00:13.598Z,16.60
2022-11-16T02:02:40.116Z,16.60
2022-11-16T02:05:06.606Z,16.50
2022-11-16T02:07:33.157Z,16.60
2022-11-16T02:09:59.684Z,16.60
2022-11-16T02:12:26.162Z,16.70
2022-11-16T02:14:53.296Z,16.60
2022-11-16T02:17:19.745Z,16.60
2022-11-16T02:19:46.211Z,16.60
2022-11-16T02:22:12.664Z,16.60
2022-11-16T02:24:39.175Z,16.60
2022-11-16T02:27:05.645Z,16.60
2022-11-16T02:29:32.116Z,16.60
2022-11-16T02:32:01.348Z,16.60
2022-11-16T02:34:27.819Z,16.60
2022-11-16T02:36:54.302Z,16.60
2022-11-16T02:39:20.833Z,16.60
2022-11-16T02:41:47.287Z,16.60
2022-11-16T02:44:13.756Z,16.60
2022-11-16T02:46:40.203Z,16.60
2022-11-16T02:49:06.688Z,16.60
2022-11-16T02:51:33.146Z,16.60
2022-11-16T02:53:59.790Z,16.60
2022-11-16T02:56:26.264Z,16.60
2022-11-16T02:58:52.726Z,16.60
2022-11-16T03:01:19.505Z,16.60
2022-11-16T03:06:26.419Z,16.60
2022-11-16T03:08:52.910Z,16.60
2022-11-16T03:11:19.379Z,16.60
2022-11-16T03:13:45.833Z,16.60
2022-11-16T03:16:12.308Z,16.60
2022-11-16T03:18:38.793Z,16.70
2022-11-16T03:21:06.324Z,16.60
2022-11-16T03:23:32.799Z,16.70
2022-11-16T03:25:59.256Z,16.60
2022-11-16T03:28:25.723Z,16.60
2022-11-16T03:30:52.217Z,16.60
2022-11-16T03:33:18.685Z,16.60
2022-11-16T03:35:45.135Z,16.60
2022-11-16T03:38:11.609Z,16.60
2022-11-16T03:40:38.077Z,16.60
2022-11-16T03:43:04.578Z,16.60
2022-11-16T03:45:31.096Z,16.60
2022-11-16T03:47:57.578Z,16.60
2022-11-16T03:50:24.074Z,16.60
2022-11-16T03:52:50.530Z,16.60
2022-11-16T03:55:17.022Z,16.60
2022-11-16T03:57:43.493Z,16.60
2022-11-16T04:00:09.982Z,16.60
2022-11-16T04:02:36.439Z,16.70
2022-11-16T04:05:02.931Z,16.60
2022-11-16T04:07:29.449Z,16.60
2022-11-16T04:09:59.004Z,16.60
2022-11-16T04:12:25.469Z,16.60
2022-11-16T04:14:51.934Z,16.60
2022-11-16T04:17:18.389Z,16.60
2022-11-16T04:19:44.863Z,16.60
2022-11-16T04:22:11.322Z,16.60
2022-11-16T04:24:37.794Z,16.60
2022-11-16T04:27:04.740Z,16.60
2022-11-16T04:29:31.201Z,16.60
2022-11-16T04:31:57.675Z,16.60
2022-11-16T04:34:24.132Z,16.60
2022-11-16T04:36:50.606Z,16.60
2022-11-16T04:39:17.126Z,16.60
2022-11-16T04:41:43.584Z,16.60
2022-11-16T04:44:10.081Z,16.60
2022-11-16T04:46:36.548Z,16.60
2022-11-16T04:49:02.992Z,16.60
2022-11-16T04:51:29.454Z,16.60
2022-11-16T04:53:55.937Z,16.60
2022-11-16T04:56:22.408Z,16.60
2022-11-16T04:58:48.883Z,16.60
2022-11-16T05:01:15.411Z,16.60
2022-11-16T05:03:41.927Z,16.60
2022-11-16T05:06:08.400Z,16.60
2022-11-16T05:08:35.164Z,16.60
2022-11-16T05:11:01.796Z,16.60
2022-11-16T05:13:28.287Z,16.60
2022-11-16T05:15:54.779Z,16.60
2022-11-16T05:18:21.282Z,16.70
2022-11-16T05:20:47.784Z,16.60
2022-11-16T05:23:14.278Z,16.60
2022-11-16T05:25:40.767Z,16.60
2022-11-16T05:28:07.246Z,16.60
2022-11-16T05:30:33.735Z,16.60
2022-11-16T05:33:00.573Z,16.50
2022-11-16T05:35:27.092Z,16.60
2022-11-16T05:37:53.616Z,16.60
2022-11-16T05:40:20.225Z,16.60
2022-11-16T05:42:46.685Z,16.60
2022-11-16T05:45:17.150Z,16.60
2022-11-16T05:47:46.321Z,16.60
2022-11-16T05:50:12.802Z,16.60
2022-11-16T05:52:39.289Z,16.60
2022-11-16T05:55:05.743Z,16.60
2022-11-16T05:57:32.221Z,16.60
2022-11-16T05:59:58.694Z,16.60
2022-11-16T06:02:25.270Z,16.60
2022-11-16T06:04:54.934Z,16.60
2022-11-16T06:07:21.470Z,16.50
2022-11-16T06:09:47.993Z,16.60
2022-11-16T06:12:14.456Z,16.60
2022-11-16T06:14:40.969Z,16.60
2022-11-16T06:17:07.453Z,16.50
2022-11-16T06:19:33.928Z,16.60
2022-11-16T06:22:03.254Z,16.60
2022-11-16T06:24:29.704Z,16.60
2022-11-16T06:26:56.197Z,16.60
2022-11-16T06:29:22.667Z,16.60
2022-11-16T06:31:49.138Z,16.60
2022-11-16T06:34:15.603Z,16.50
2022-11-16T06:36:42.065Z,16.50
2022-11-16T06:39:08.533Z,16.50
2022-11-16T06:41:38.812Z,16.60
2022-11-16T06:44:07.856Z,16.60
2022-11-16T06:46:34.343Z,16.60
2022-11-16T06:49:00.811Z,16.50
2022-11-16T06:51:27.311Z,16.50
2022-11-16T06:53:53.779Z,16.50
2022-11-16T06:56:20.324Z,16.50
2022-11-16T06:58:46.779Z,16.50
2022-11-16T07:01:13.301Z,16.50
2022-11-16T07:03:39.866Z,16.50
2022-11-16T07:06:06.348Z,16.50
2022-11-16T07:08:33.189Z,16.60
2022-11-16T07:11:04.041Z,16.60
2022-11-16T07:13:30.858Z,16.50
2022-11-16T07:15:57.369Z,16.40
2022-11-16T07:18:23.848Z,16.40
2022-11-16T07:20:50.334Z,16.20
2022-11-16T07:23:16.879Z,16.20
2022-11-16T07:25:43.369Z,16.20
2022-11-16T07:28:09.816Z,16.20
2022-11-16T07:30:36.300Z,16.40
2022-11-16T07:33:02.913Z,16.20
2022-11-16T07:35:29.416Z,16.20
2022-11-16T07:37:55.901Z,16.20
2022-11-16T07:40:22.375Z,16.10
2022-11-16T07:42:48.856Z,16.20
2022-11-16T07:45:15.311Z,16.30
2022-11-16T07:47:41.771Z,16.30
2022-11-16T07:50:08.229Z,16.30
2022-11-16T07:52:34.689Z,16.30
2022-11-16T07:55:01.200Z,16.30
2022-11-16T07:57:27.857Z,16.30
2022-11-16T07:59:54.338Z,16.40
2022-11-16T08:02:20.792Z,16.40
2022-11-16T08:04:47.292Z,16.30
2022-11-16T08:07:13.778Z,16.10
2022-11-16T08:09:40.308Z,16.10
2022-11-16T08:12:06.823Z,16.30
2022-11-16T08:14:33.283Z,16.30
2022-11-16T08:16:59.747Z,16.20
2022-11-16T08:19:26.256Z,16.10
2022-11-16T08:21:52.711Z,16.00
2022-11-16T08:24:19.186Z,16.10
2022-11-16T08:26:45.645Z,16.10
2022-11-16T08:29:12.132Z,16.00
2022-11-16T08:31:38.607Z,16.00
2022-11-16T08:34:05.063Z,15.90
2022-11-16T08:36:31.526Z,16.10
2022-11-16T08:38:58.105Z,16.00
2022-11-16T08:41:24.619Z,16.20
2022-11-16T08:43:51.083Z,16.10
2022-11-16T08:46:17.569Z,16.20
2022-11-16T08:48:47.054Z,16.30
2022-11-16T08:51:18.639Z,16.20
2022-11-16T08:53:45.918Z,16.30
2022-11-16T08:56:12.455Z,16.10
2022-11-16T08:58:38.911Z,16.20
2022-11-16T09:01:05.388Z,16.20
2022-11-16T09:03:32.032Z,16.00
2022-11-16T09:05:58.500Z,16.10
2022-11-16T09:08:25.007Z,16.20
2022-11-16T09:10:51.495Z,16.10
2022-11-16T09:13:17.990Z,16.10
2022-11-16T09:15:44.476Z,16.20
2022-11-16T09:18:10.929Z,16.30
2022-11-16T09:20:37.383Z,16.20
2022-11-16T09:23:03.847Z,16.20
2022-11-16T09:25:30.314Z,16.40
2022-11-16T09:27:56.804Z,16.30
2022-11-16T09:30:23.283Z,16.20
2022-11-16T09:32:49.738Z,16.10
2022-11-16T09:35:16.231Z,16.10
2022-11-16T09:37:44.708Z,16.30
2022-11-16T09:40:11.162Z,16.00
2022-11-16T09:42:37.624Z,16.10
2022-11-16T09:45:04.104Z,16.10
2022-11-16T09:47:30.635Z,16.20
2022-11-16T09:50:02.953Z,16.30
2022-11-16T09:52:30.628Z,16.10
2022-11-16T09:54:57.128Z,15.90
2022-11-16T09:57:23.631Z,16.00
2022-11-16T09:59:50.089Z,16.00
2022-11-16T10:02:16.584Z,16.00
2022-11-16T10:04:43.072Z,16.00
2022-11-16T10:07:09.665Z,16.00
2022-11-16T10:09:36.183Z,16.10
2022-11-16T10:12:02.635Z,16.10
2022-11-16T10:14:29.113Z,16.10
2022-11-16T10:16:55.623Z,16.00
2022-11-16T10:19:22.516Z,16.10
2022-11-16T10:21:49.012Z,15.90
2022-11-16T10:24:15.485Z,15.80
2022-11-16T10:26:41.943Z,16.10
2022-11-16T10:29:08.431Z,16.10
2022-11-16T10:31:34.890Z,16.30
2022-11-16T10:34:01.387Z,16.00
2022-11-16T10:36:27.846Z,16.00
2022-11-16T10:38:54.303Z,16.00
2022-11-16T10:41:20.777Z,15.90
2022-11-16T10:43:47.590Z,15.80
2022-11-16T10:46:14.058Z,15.90
2022-11-16T10:48:40.531Z,15.80
2022-11-16T10:51:07.094Z,15.90
2022-11-16T10:53:33.882Z,15.90
2022-11-16T10:56:01.842Z,16.00
2022-11-16T10:58:28.306Z,16.10
2022-11-16T11:00:55.344Z,16.20
2022-11-16T11:03:21.817Z,15.90
2022-11-16T11:05:48.281Z,15.90
2022-11-16T11:08:14.847Z,15.90
2022-11-16T11:10:41.316Z,16.10
2022-11-16T11:13:07.774Z,16.20
2022-11-16T11:15:34.261Z,16.10
2022-11-16T11:18:00.734Z,16.00
2022-11-16T11:20:27.209Z,16.10
2022-11-16T11:22:53.689Z,16.20
2022-11-16T11:25:20.157Z,16.20
2022-11-16T11:27:46.631Z,16.30
2022-11-16T11:30:13.117Z,16.10
2022-11-16T11:35:19.922Z,15.90
2022-11-16T11:37:46.390Z,16.10
2022-11-16T11:40:12.849Z,16.10
2022-11-16T11:42:39.302Z,16.10
2022-11-16T11:45:05.794Z,16.10
2022-11-16T11:50:18.795Z,16.20
2022-11-16T11:52:45.250Z,16.20
2022-11-16T11:55:11.744Z,16.30
2022-11-16T11:57:38.215Z,16.20
2022-11-16T12:00:04.680Z,16.30
2022-11-16T12:02:31.285Z,16.30
2022-11-16T12:04:57.886Z,16.30
2022-11-16T12:07:24.430Z,16.40
2022-11-16T12:09:50.992Z,16.50
2022-11-16T12:12:17.451Z,16.50
2022-11-16T12:14:43.927Z,16.40
2022-11-16T12:17:10.395Z,16.40
2022-11-16T12:19:36.852Z,16.50
2022-11-16T12:22:03.327Z,16.50
2022-11-16T12:24:29.787Z,16.20
2022-11-16T12:26:56.276Z,16.40
2022-11-16T12:29:22.741Z,16.40
2022-11-16T12:31:49.203Z,16.40
2022-11-16T12:34:15.677Z,16.30
2022-11-16T12:36:42.157Z,16.40
2022-11-16T12:39:08.608Z,16.40
2022-11-16T12:41:35.073Z,16.40
2022-11-16T12:44:01.559Z,16.40
2022-11-16T12:46:28.014Z,16.50
2022-11-16T12:48:54.535Z,16.50
2022-11-16T12:51:21.046Z,16.50
2022-11-16T12:53:47.509Z,16.40
2022-11-16T12:56:13.984Z,16.60
2022-11-16T12:58:40.446Z,16.50
2022-11-16T13:01:06.928Z,16.60
2022-11-16T13:03:33.984Z,16.60
2022-11-16T13:06:00.712Z,16.60
2022-11-16T13:08:27.184Z,16.60
2022-11-16T13:10:53.655Z,16.60
2022-11-16T13:13:36.045Z,16.60
2022-11-16T13:16:06.592Z,16.70
2022-11-16T13:18:33.069Z,16.70
2022-11-16T13:20:59.540Z,16.70
2022-11-16T13:23:26.011Z,16.70
2022-11-16T13:25:52.520Z,16.70
2022-11-16T13:28:18.974Z,16.70
2022-11-16T13:30:45.447Z,16.70
2022-11-16T13:33:11.922Z,16.70
2022-11-16T13:35:38.392Z,16.80
2022-11-16T13:38:04.903Z,16.70
2022-11-16T13:40:31.413Z,16.70
2022-11-16T13:42:57.914Z,16.70
2022-11-16T13:45:24.464Z,16.70
2022-11-16T13:47:50.911Z,16.80
2022-11-16T13:50:17.359Z,16.60
2022-11-16T13:53:23.477Z,16.80
2022-11-16T13:55:30.362Z,16.80
2022-11-16T13:57:56.875Z,16.70
2022-11-16T14:00:23.342Z,16.80
2022-11-16T14:02:49.797Z,16.80
2022-11-16T14:05:16.256Z,16.80
2022-11-16T14:07:42.754Z,16.80
2022-11-16T14:10:09.309Z,16.80
2022-11-16T14:12:35.850Z,16.80
2022-11-16T14:15:03.736Z,16.80
2022-11-16T14:17:30.682Z,16.80
2022-11-16T14:19:57.151Z,16.80
2022-11-16T14:22:23.630Z,16.80
2022-11-16T14:24:50.101Z,16.80
2022-11-16T14:27:16.595Z,16.80
2022-11-16T14:29:43.135Z,16.90
2022-11-16T14:32:09.636Z,16.80
2022-11-16T14:34:36.103Z,16.80
2022-11-16T14:37:02.632Z,16.80
2022-11-16T14:39:29.088Z,16.80
2022-11-16T14:41:55.552Z,16.80
2022-11-16T14:44:22.348Z,16.80
2022-11-16T14:46:48.819Z,16.70
2022-11-16T14:49:15.279Z,16.80
2022-11-16T14:51:41.759Z,16.80
2022-11-16T14:54:08.245Z,16.70
2022-11-16T14:56:34.964Z,16.80
2022-11-16T14:59:01.465Z,16.80
2022-11-16T15:01:27.986Z,16.80
2022-11-16T15:03:54.528Z,16.80
2022-11-16T15:06:21.774Z,16.80
2022-11-16T15:08:48.257Z,16.80
2022-11-16T15:11:14.754Z,16.80
2022-11-16T15:13:41.227Z,16.70
2022-11-16T15:16:07.695Z,16.80
2022-11-16T15:18:34.159Z,16.80
2022-11-16T15:21:00.613Z,16.80
2022-11-16T15:23:30.645Z,16.80
2022-11-16T15:25:57.469Z,16.80
2022-11-16T15:28:24.002Z,16.80
2022-11-16T15:30:50.468Z,16.80
2022-11-16T15:33:16.936Z,16.80
2022-11-16T15:35:43.410Z,16.80
2022-11-16T15:38:09.900Z,16.80
2022-11-16T15:40:36.379Z,16.80
2022-11-16T15:43:02.878Z,16.80
2022-11-16T15:45:29.353Z,16.80
2022-11-16T15:47:55.832Z,16.70
2022-11-16T15:50:22.305Z,16.80
2022-11-16T15:52:48.784Z,16.80
2022-11-16T15:55:19.708Z,16.80
2022-11-16T15:57:46.803Z,16.80
2022-11-16T16:00:13.261Z,16.50
2022-11-16T16:02:39.746Z,16.80
2022-11-16T16:05:06.281Z,16.80
2022-11-16T16:07:32.800Z,16.80
2022-11-16T16:09:59.300Z,16.80
2022-11-16T16:12:28.161Z,16.70
2022-11-16T16:14:54.634Z,16.70
2022-11-16T16:17:21.229Z,16.80
2022-11-16T16:19:47.694Z,16.70
2022-11-16T16:22:14.181Z,16.70
2022-11-16T16:24:40.655Z,16.80
2022-11-16T16:27:07.127Z,16.70
2022-11-16T16:29:33.599Z,16.70
2022-11-16T16:32:00.054Z,16.70
2022-11-16T16:34:26.529Z,16.70
2022-11-16T16:36:53.037Z,16.70
2022-11-16T16:39:19.512Z,16.70
2022-11-16T16:41:46.021Z,16.70
2022-11-16T16:44:17.160Z,16.70
2022-11-16T16:46:43.666Z,16.70
2022-11-16T16:49:10.137Z,16.70
2022-11-16T16:51:36.740Z,16.70
2022-11-16T16:54:03.225Z,16.70
2022-11-16T16:56:29.721Z,16.70
2022-11-16T16:58:56.203Z,16.70
2022-11-16T17:01:22.708Z,16.70
2022-11-16T17:03:49.239Z,16.70
2022-11-16T17:06:15.713Z,16.70
2022-11-16T17:08:42.316Z,16.70
2022-11-16T17:11:08.788Z,16.70
2022-11-16T17:13:35.517Z,16.70
2022-11-16T17:16:02.212Z,16.70
2022-11-16T17:18:28.697Z,16.70
2022-11-16T17:20:55.162Z,16.70
2022-11-16T17:23:21.632Z,16.70
2022-11-16T17:25:48.094Z,16.70
2022-11-16T17:28:14.566Z,16.70
2022-11-16T17:30:41.022Z,16.70
2022-11-16T17:33:07.489Z,16.70
2022-11-16T17:35:33.955Z,16.60
2022-11-16T17:38:00.437Z,16.40
2022-11-16T17:40:26.908Z,16.70
2022-11-16T17:42:53.366Z,16.70
2022-11-16T17:45:19.839Z,16.70
2022-11-16T17:47:46.417Z,16.70
2022-11-16T17:50:13.387Z,16.70
2022-11-16T17:52:39.879Z,16.60
2022-11-16T17:55:06.337Z,16.60
2022-11-16T17:57:32.800Z,16.70
2022-11-16T17:59:59.275Z,16.70
2022-11-16T18:02:25.745Z,16.70
2022-11-16T18:04:52.211Z,16.70
2022-11-16T18:07:18.755Z,16.70
2022-11-16T18:09:45.374Z,16.70
2022-11-16T18:12:11.891Z,16.70
2022-11-16T18:14:38.344Z,16.70
2022-11-16T18:17:04.831Z,16.70
2022-11-16T18:19:31.296Z,16.60
2022-11-16T18:21:57.796Z,16.60
2022-11-16T18:24:24.261Z,16.70
2022-11-16T18:26:50.732Z,16.70
2022-11-16T18:29:17.219Z,16.70
2022-11-16T18:31:43.719Z,16.70
2022-11-16T18:34:10.239Z,16.70
2022-11-16T18:36:36.693Z,16.70
2022-11-16T18:39:06.173Z,16.60
2022-11-16T18:41:32.705Z,16.60
2022-11-16T18:43:59.477Z,16.70
2022-11-16T18:46:26.074Z,16.70
2022-11-16T18:48:52.570Z,16.60
2022-11-16T18:51:19.034Z,16.70
2022-11-16T18:53:45.505Z,16.70
2022-11-16T18:56:12.048Z,16.70
2022-11-16T18:58:53.942Z,16.70
2022-11-16T19:01:20.568Z,16.60
2022-11-16T19:03:47.074Z,16.60
2022-11-16T19:06:13.533Z,16.60
2022-11-16T19:08:39.988Z,16.60
2022-11-16T19:11:06.473Z,16.60
2022-11-16T19:13:33.488Z,16.60
2022-11-16T19:16:00.295Z,16.60
2022-11-16T19:18:26.886Z,16.60
2022-11-16T19:20:53.374Z,16.60
2022-11-16T19:23:19.834Z,16.60
2022-11-16T19:25:46.289Z,16.60
2022-11-16T19:28:12.740Z,16.70
2022-11-16T19:30:39.213Z,16.60
2022-11-16T19:33:05.739Z,16.60
2022-11-16T19:35:32.303Z,16.60
2022-11-16T19:37:58.765Z,16.60
2022-11-16T19:40:25.424Z,16.60
2022-11-16T19:42:51.964Z,16.60
2022-11-16T19:45:18.501Z,16.60
2022-11-16T19:47:45.000Z,16.60
2022-11-16T19:50:11.482Z,16.60
2022-11-16T19:52:37.978Z,16.60
2022-11-16T19:55:04.521Z,16.40
2022-11-16T19:57:30.997Z,16.60
2022-11-16T19:59:57.467Z,16.60
2022-11-16T20:02:24.458Z,16.60
2022-11-16T20:04:50.996Z,16.60
2022-11-16T20:07:17.603Z,16.60
2022-11-16T20:09:45.065Z,16.60
2022-11-16T20:12:13.811Z,16.60
2022-11-16T20:14:40.340Z,16.60
2022-11-16T20:17:06.936Z,16.60
2022-11-16T20:22:16.635Z,16.60
2022-11-16T20:24:43.100Z,16.60
2022-11-16T20:27:09.574Z,16.60
2022-11-16T20:29:36.034Z,16.60
2022-11-16T20:32:02.498Z,16.60
2022-11-16T20:34:28.957Z,16.40
2022-11-16T20:36:55.950Z,16.50
2022-11-16T20:39:22.431Z,16.60
2022-11-16T20:41:48.888Z,16.60
2022-11-16T20:44:16.884Z,16.60
2022-11-16T20:46:43.442Z,16.50
2022-11-16T20:49:09.945Z,16.50
2022-11-16T20:51:36.428Z,16.50
2022-11-16T20:54:02.880Z,16.50
2022-11-16T20:56:29.366Z,16.50
2022-11-16T20:58:55.848Z,16.60
2022-11-16T21:01:22.415Z,16.60
2022-11-16T21:03:48.937Z,16.50
2022-11-16T21:06:15.430Z,16.50
2022-11-16T21:08:41.895Z,16.50
2022-11-16T21:11:08.432Z,16.50
2022-11-16T21:13:35.202Z,16.50
2022-11-16T21:16:01.864Z,16.40
2022-11-16T21:18:30.830Z,16.50
2022-11-16T21:20:57.509Z,16.50
2022-11-16T21:23:23.984Z,16.50
2022-11-16T21:25:50.961Z,16.50
2022-11-16T21:28:20.135Z,16.50
2022-11-16T21:30:49.218Z,16.50
2022-11-16T21:33:15.702Z,16.50
2022-11-16T21:35:42.174Z,16.50
2022-11-16T21:38:08.639Z,16.50
2022-11-16T21:40:35.102Z,16.50
2022-11-16T21:43:01.985Z,16.50
2022-11-16T21:45:28.453Z,16.40
2022-11-16T21:47:54.936Z,16.50
2022-11-16T21:50:36.796Z,16.50
2022-11-16T21:53:03.274Z,16.40
2022-11-16T21:55:29.747Z,16.50
2022-11-16T21:57:56.243Z,16.40
2022-11-16T22:00:22.705Z,16.40
2022-11-16T22:02:49.204Z,16.40
2022-11-16T22:05:15.659Z,16.40
2022-11-16T22:07:42.121Z,16.40
2022-11-16T22:10:08.607Z,16.40
2022-11-16T22:12:35.096Z,16.50
2022-11-16T22:15:01.569Z,16.40
2022-11-16T22:17:28.341Z,16.40
2022-11-16T22:19:54.796Z,16.40
2022-11-16T22:22:21.260Z,16.40
2022-11-16T22:24:47.798Z,16.40
2022-11-16T22:27:14.288Z,16.40
2022-11-16T22:29:40.760Z,16.40
2022-11-16T22:32:07.435Z,16.40
2022-11-16T22:34:33.923Z,16.40
2022-11-16T22:37:00.400Z,16.40
2022-11-16T22:39:27.060Z,16.40
2022-11-16T22:41:53.519Z,16.40
2022-11-16T22:44:20.002Z,16.40
2022-11-16T22:46:46.504Z,16.40
2022-11-16T22:49:12.987Z,16.40
2022-11-16T22:51:39.502Z,16.40
2022-11-16T22:54:05.954Z,16.40
2022-11-16T22:56:32.417Z,16.40
2022-11-16T22:58:58.896Z,16.40
2022-11-16T23:01:25.409Z,16.40
2022-11-16T23:03:59.156Z,16.40
2022-11-16T23:06:25.633Z,16.40
2022-11-16T23:08:52.089Z,16.40
2022-11-16T23:11:18.553Z,16.30
2022-11-16T23:13:45.028Z,16.40
2022-11-16T23:16:11.529Z,16.30
2022-11-16T23:18:38.029Z,16.30
2022-11-16T23:21:04.498Z,16.40
2022-11-16T23:23:30.952Z,16.40
2022-11-16T23:25:57.412Z,16.40
2022-11-16T23:28:23.884Z,16.30
2022-11-16T23:30:50.349Z,16.30
2022-11-16T23:33:16.817Z,16.40
2022-11-16T23:35:43.281Z,16.40
2022-11-16T23:38:09.766Z,16.30
2022-11-16T23:40:36.239Z,16.30
2022-11-16T23:43:02.706Z,16.30
2022-11-16T23:45:29.170Z,16.40
2022-11-16T23:47:55.635Z,16.40
2022-11-16T23:50:22.386Z,16.40
2022-11-16T23:52:48.852Z,16.30
2022-11-16T23:55:15.326Z,16.40
2022-11-16T23:57:41.801Z,16.40
